sensor_id;sensor_type;location;lat;lon;timestamp;pressure;altitude;pressure_sealevel;temperature;humidity
11648;BME280;5880;52.342;9.662;2023-04-01T00:00:31;98865.78;;;15.09;55.90
11648;BME280;5880;52.342;9.662;2023-04-01T00:02:56;98863.84;;;15.09;56.01
11648;BME280;5880;52.342;9.662;2023-04-01T00:05:22;98858.44;;;15.04;56.09
11648;BME280;5880;52.342;9.662;2023-04-01T00:07:50;98867.72;;;15.08;55.97
11648;BME280;5880;52.342;9.662;2023-04-01T00:10:16;98861.09;;;15.09;55.99
11648;BME280;5880;52.342;9.662;2023-04-01T00:12:42;98867.41;;;15.10;56.06
11648;BME280;5880;52.342;9.662;2023-04-01T00:15:10;98861.91;;;15.10;56.03
11648;BME280;5880;52.342;9.662;2023-04-01T00:17:36;98865.78;;;15.09;55.99
11648;BME280;5880;52.342;9.662;2023-04-01T00:20:04;98865.50;;;15.10;56.07
11648;BME280;5880;52.342;9.662;2023-04-01T00:22:30;98867.13;;;15.11;55.99
11648;BME280;5880;52.342;9.662;2023-04-01T00:24:56;98865.50;;;15.10;56.03
11648;BME280;5880;52.342;9.662;2023-04-01T00:27:21;98868.53;;;15.09;56.09
11648;BME280;5880;52.342;9.662;2023-04-01T00:29:47;98868.31;;;15.05;56.05
11648;BME280;5880;52.342;9.662;2023-04-01T00:32:14;98862.34;;;15.03;56.03
11648;BME280;5880;52.342;9.662;2023-04-01T00:34:40;98872.22;;;15.04;56.12
11648;BME280;5880;52.342;9.662;2023-04-01T00:37:07;98869.75;;;15.03;56.05
11648;BME280;5880;52.342;9.662;2023-04-01T00:39:35;98858.75;;;15.03;56.18
11648;BME280;5880;52.342;9.662;2023-04-01T00:42:03;98857.94;;;15.02;56.09
11648;BME280;5880;52.342;9.662;2023-04-01T00:44:34;98857.66;;;15.04;55.87
11648;BME280;5880;52.342;9.662;2023-04-01T00:47:00;98853.06;;;14.99;56.08
11648;BME280;5880;52.342;9.662;2023-04-01T00:49:37;98868.31;;;15.05;55.96
11648;BME280;5880;52.342;9.662;2023-04-01T00:52:07;98866.72;;;15.04;55.87
11648;BME280;5880;52.342;9.662;2023-04-01T00:54:35;98867.50;;;15.05;55.91
11648;BME280;5880;52.342;9.662;2023-04-01T00:57:14;98867.84;;;15.03;55.89
11648;BME280;5880;52.342;9.662;2023-04-01T00:59:47;98870.88;;;15.02;55.89
11648;BME280;5880;52.342;9.662;2023-04-01T01:02:15;98879.44;;;15.00;55.93
11648;BME280;5880;52.342;9.662;2023-04-01T01:04:41;98875.66;;;14.96;56.12
11648;BME280;5880;52.342;9.662;2023-04-01T01:07:33;98875.44;;;14.92;55.82
11648;BME280;5880;52.342;9.662;2023-04-01T01:13:10;98859.97;;;14.83;55.79
11648;BME280;5880;52.342;9.662;2023-04-01T01:15:53;98865.47;;;14.83;56.02
11648;BME280;5880;52.342;9.662;2023-04-01T01:18:49;98871.78;;;14.83;55.90
11648;BME280;5880;52.342;9.662;2023-04-01T01:27:01;98860.06;;;14.77;56.01
11648;BME280;5880;52.342;9.662;2023-04-01T01:33:06;98866.13;;;14.74;55.89
11648;BME280;5880;52.342;9.662;2023-04-01T01:35:52;98859.63;;;14.70;56.02
11648;BME280;5880;52.342;9.662;2023-04-01T01:38:26;98857.59;;;14.76;55.96
11648;BME280;5880;52.342;9.662;2023-04-01T01:40:55;98870.22;;;14.77;56.00
11648;BME280;5880;52.342;9.662;2023-04-01T01:43:30;98863.63;;;14.78;55.91
11648;BME280;5880;52.342;9.662;2023-04-01T01:46:03;98855.38;;;14.78;55.98
11648;BME280;5880;52.342;9.662;2023-04-01T01:48:31;98858.13;;;14.78;55.87
11648;BME280;5880;52.342;9.662;2023-04-01T01:50:59;98861.38;;;14.80;55.78
11648;BME280;5880;52.342;9.662;2023-04-01T01:53:25;98866.56;;;14.82;55.95
11648;BME280;5880;52.342;9.662;2023-04-01T01:55:51;98856.19;;;14.78;56.02
11648;BME280;5880;52.342;9.662;2023-04-01T01:58:45;98860.16;;;14.86;55.84
11648;BME280;5880;52.342;9.662;2023-04-01T02:01:18;98866.78;;;14.85;55.85
11648;BME280;5880;52.342;9.662;2023-04-01T02:03:46;98867.59;;;14.86;55.90
11648;BME280;5880;52.342;9.662;2023-04-01T02:06:17;98866.50;;;14.87;55.76
11648;BME280;5880;52.342;9.662;2023-04-01T02:08:53;98865.38;;;14.88;55.71
11648;BME280;5880;52.342;9.662;2023-04-01T02:11:30;98866.97;;;14.89;55.84
11648;BME280;5880;52.342;9.662;2023-04-01T02:17:25;98868.41;;;14.86;55.85
11648;BME280;5880;52.342;9.662;2023-04-01T02:19:57;98866.78;;;14.85;55.80
11648;BME280;5880;52.342;9.662;2023-04-01T02:22:29;98871.47;;;14.85;55.87
11648;BME280;5880;52.342;9.662;2023-04-01T02:25:03;98870.63;;;14.84;55.84
11648;BME280;5880;52.342;9.662;2023-04-01T02:27:30;98869.84;;;14.84;55.95
11648;BME280;5880;52.342;9.662;2023-04-01T02:29:57;98870.16;;;14.82;55.94
11648;BME280;5880;52.342;9.662;2023-04-01T02:32:24;98867.41;;;14.82;55.83
11648;BME280;5880;52.342;9.662;2023-04-01T02:34:51;98865.47;;;14.83;55.94
11648;BME280;5880;52.342;9.662;2023-04-01T02:37:17;98869.03;;;14.83;55.78
11648;BME280;5880;52.342;9.662;2023-04-01T02:39:46;98869.84;;;14.84;55.86
11648;BME280;5880;52.342;9.662;2023-04-01T02:42:14;98857.22;;;14.83;55.90
11648;BME280;5880;52.342;9.662;2023-04-01T02:44:40;98868.72;;;14.85;55.83
11648;BME280;5880;52.342;9.662;2023-04-01T02:47:05;98868.72;;;14.85;55.90
11648;BME280;5880;52.342;9.662;2023-04-01T02:49:31;98867.41;;;14.82;55.82
11648;BME280;5880;52.342;9.662;2023-04-01T02:51:57;98867.09;;;14.84;55.91
11648;BME280;5880;52.342;9.662;2023-04-01T02:54:22;98871.78;;;14.83;55.87
11648;BME280;5880;52.342;9.662;2023-04-01T02:56:48;98867.41;;;14.82;55.76
11648;BME280;5880;52.342;9.662;2023-04-01T02:59:14;98869.25;;;14.87;55.81
11648;BME280;5880;52.342;9.662;2023-04-01T03:01:39;98871.16;;;14.86;55.99
11648;BME280;5880;52.342;9.662;2023-04-01T03:04:05;98872.81;;;14.87;55.79
11648;BME280;5880;52.342;9.662;2023-04-01T03:06:31;98868.41;;;14.86;55.64
11648;BME280;5880;52.342;9.662;2023-04-01T03:08:56;98874.75;;;14.87;55.77
11648;BME280;5880;52.342;9.662;2023-04-01T03:11:22;98884.63;;;14.88;55.69
11648;BME280;5880;52.342;9.662;2023-04-01T03:13:48;98880.53;;;14.85;55.84
11648;BME280;5880;52.342;9.662;2023-04-01T03:16:14;98881.06;;;14.87;55.63
11648;BME280;5880;52.342;9.662;2023-04-01T03:18:40;98875.03;;;14.85;55.65
11648;BME280;5880;52.342;9.662;2023-04-01T03:21:18;98877.50;;;14.87;55.76
11648;BME280;5880;52.342;9.662;2023-04-01T03:23:44;98877.78;;;14.85;55.81
11648;BME280;5880;52.342;9.662;2023-04-01T03:26:10;98870.97;;;14.83;55.78
11648;BME280;5880;52.342;9.662;2023-04-01T03:28:36;98876.13;;;14.84;55.63
11648;BME280;5880;52.342;9.662;2023-04-01T03:31:02;98875.03;;;14.85;56.06
11648;BME280;5880;52.342;9.662;2023-04-01T03:33:28;98880.53;;;14.85;55.68
11648;BME280;5880;52.342;9.662;2023-04-01T03:35:53;98879.72;;;14.85;55.76
11648;BME280;5880;52.342;9.662;2023-04-01T03:38:19;98878.06;;;14.84;55.84
11648;BME280;5880;52.342;9.662;2023-04-01T03:40:45;98880.03;;;14.83;55.76
11648;BME280;5880;52.342;9.662;2023-04-01T03:43:11;98874.53;;;14.83;55.65
11648;BME280;5880;52.342;9.662;2023-04-01T03:45:45;98879.72;;;14.85;55.68
11648;BME280;5880;52.342;9.662;2023-04-01T03:48:11;98876.47;;;14.83;55.56
11648;BME280;5880;52.342;9.662;2023-04-01T03:50:37;98880.03;;;14.83;55.65
11648;BME280;5880;52.342;9.662;2023-04-01T03:53:03;98887.47;;;14.83;55.60
11648;BME280;5880;52.342;9.662;2023-04-01T03:55:28;98895.38;;;14.84;55.74
11648;BME280;5880;52.342;9.662;2023-04-01T03:57:54;98891.84;;;14.84;55.71
11648;BME280;5880;52.342;9.662;2023-04-01T04:00:23;98892.63;;;14.84;55.68
11648;BME280;5880;52.342;9.662;2023-04-01T04:02:48;98896.22;;;14.85;55.67
11648;BME280;5880;52.342;9.662;2023-04-01T04:05:14;98900.88;;;14.84;55.69
11648;BME280;5880;52.342;9.662;2023-04-01T04:07:40;98896.22;;;14.85;55.63
11648;BME280;5880;52.342;9.662;2023-04-01T04:10:07;98897.03;;;14.85;55.79
11648;BME280;5880;52.342;9.662;2023-04-01T04:12:32;98896.53;;;14.83;55.83
11648;BME280;5880;52.342;9.662;2023-04-01T04:14:58;98900.88;;;14.84;55.76
11648;BME280;5880;52.342;9.662;2023-04-01T04:17:24;98898.75;;;14.81;55.52
11648;BME280;5880;52.342;9.662;2023-04-01T04:19:49;98897.13;;;14.80;55.68
11648;BME280;5880;52.342;9.662;2023-04-01T04:22:15;98895.50;;;14.79;55.74
11648;BME280;5880;52.342;9.662;2023-04-01T04:24:40;98897.94;;;14.81;55.68
11648;BME280;5880;52.342;9.662;2023-04-01T04:27:06;98906.72;;;14.83;55.67
11648;BME280;5880;52.342;9.662;2023-04-01T04:29:32;98893.53;;;14.80;55.77
11648;BME280;5880;52.342;9.662;2023-04-01T04:31:57;98896.53;;;14.83;55.67
11648;BME280;5880;52.342;9.662;2023-04-01T04:34:23;98905.38;;;14.80;55.87
11648;BME280;5880;52.342;9.662;2023-04-01T04:36:50;98899.88;;;14.80;55.74
11648;BME280;5880;52.342;9.662;2023-04-01T04:39:15;98903.72;;;14.79;55.73
11648;BME280;5880;52.342;9.662;2023-04-01T04:41:41;98909.03;;;14.75;55.70
11648;BME280;5880;52.342;9.662;2023-04-01T04:44:07;98911.78;;;14.75;55.81
11648;BME280;5880;52.342;9.662;2023-04-01T04:46:33;98912.38;;;14.72;55.83
11648;BME280;5880;52.342;9.662;2023-04-01T04:48:59;98909.13;;;14.70;55.93
11648;BME280;5880;52.342;9.662;2023-04-01T04:51:25;98912.97;;;14.69;55.78
11648;BME280;5880;52.342;9.662;2023-04-01T04:53:51;98914.13;;;14.68;55.71
11648;BME280;5880;52.342;9.662;2023-04-01T04:56:21;98914.41;;;14.67;55.78
11648;BME280;5880;52.342;9.662;2023-04-01T04:58:48;98917.44;;;14.65;55.85
11648;BME280;5880;52.342;9.662;2023-04-01T05:01:16;98922.13;;;14.65;55.94
11648;BME280;5880;52.342;9.662;2023-04-01T05:03:42;98918.34;;;14.61;56.02
11648;BME280;5880;52.342;9.662;2023-04-01T05:06:11;98918.06;;;14.62;55.96
11648;BME280;5880;52.342;9.662;2023-04-01T05:08:37;98923.84;;;14.61;56.05
11648;BME280;5880;52.342;9.662;2023-04-01T05:11:09;98928.00;;;14.58;55.90
11648;BME280;5880;52.342;9.662;2023-04-01T05:13:36;98931.59;;;14.59;55.90
11648;BME280;5880;52.342;9.662;2023-04-01T05:16:02;98935.44;;;14.57;55.94
11648;BME280;5880;52.342;9.662;2023-04-01T05:18:28;98930.25;;;14.56;56.12
11648;BME280;5880;52.342;9.662;2023-04-01T05:20:55;98932.97;;;14.56;56.10
11648;BME280;5880;52.342;9.662;2023-04-01T05:23:22;98931.38;;;14.55;56.07
11648;BME280;5880;52.342;9.662;2023-04-01T05:25:49;98930.56;;;14.54;56.05
11648;BME280;5880;52.342;9.662;2023-04-01T05:28:16;98932.75;;;14.52;56.21
11648;BME280;5880;52.342;9.662;2023-04-01T05:30:43;98928.06;;;14.53;56.25
11648;BME280;5880;52.342;9.662;2023-04-01T05:33:12;98934.13;;;14.55;56.22
11648;BME280;5880;52.342;9.662;2023-04-01T05:35:39;98935.50;;;14.52;56.42
11648;BME280;5880;52.342;9.662;2023-04-01T05:38:05;98936.06;;;14.54;56.31
11648;BME280;5880;52.342;9.662;2023-04-01T05:40:31;98938.19;;;14.57;56.41
11648;BME280;5880;52.342;9.662;2023-04-01T05:42:58;98931.63;;;14.53;56.51
11648;BME280;5880;52.342;9.662;2023-04-01T05:45:23;98936.78;;;14.60;56.54
11648;BME280;5880;52.342;9.662;2023-04-01T05:47:49;98938.09;;;14.63;56.55
11648;BME280;5880;52.342;9.662;2023-04-01T05:50:15;98937.00;;;14.64;56.75
11648;BME280;5880;52.342;9.662;2023-04-01T05:52:41;98941.59;;;14.68;56.71
11648;BME280;5880;52.342;9.662;2023-04-01T05:55:08;98942.94;;;14.71;56.74
11648;BME280;5880;52.342;9.662;2023-04-01T05:57:34;98946.50;;;14.71;56.92
11648;BME280;5880;52.342;9.662;2023-04-01T06:00:00;98943.47;;;14.73;56.95
11648;BME280;5880;52.342;9.662;2023-04-01T06:02:26;98951.72;;;14.73;56.79
11648;BME280;5880;52.342;9.662;2023-04-01T06:05:11;98949.47;;;14.75;56.90
11648;BME280;5880;52.342;9.662;2023-04-01T06:07:37;98945.88;;;14.74;57.17
11648;BME280;5880;52.342;9.662;2023-04-01T06:10:20;98955.97;;;14.79;57.23
11648;BME280;5880;52.342;9.662;2023-04-01T06:13:23;98955.69;;;14.81;57.13
11648;BME280;5880;52.342;9.662;2023-04-01T06:16:07;98957.31;;;14.82;57.23
11648;BME280;5880;52.342;9.662;2023-04-01T06:18:52;98957.84;;;14.84;57.38
11648;BME280;5880;52.342;9.662;2023-04-01T06:22:01;98962.25;;;14.85;57.32
11648;BME280;5880;52.342;9.662;2023-04-01T06:30:45;98969.50;;;14.94;57.42
11648;BME280;5880;52.342;9.662;2023-04-01T06:33:46;98970.81;;;14.97;57.55
11648;BME280;5880;52.342;9.662;2023-04-01T06:36:47;98975.41;;;15.02;57.54
11648;BME280;5880;52.342;9.662;2023-04-01T06:45:39;98981.53;;;15.12;57.42
11648;BME280;5880;52.342;9.662;2023-04-01T06:48:19;98974.94;;;15.13;57.46
11648;BME280;5880;52.342;9.662;2023-04-01T06:51:29;98980.06;;;15.20;57.49
11648;BME280;5880;52.342;9.662;2023-04-01T06:54:21;98986.06;;;15.22;57.60
11648;BME280;5880;52.342;9.662;2023-04-01T06:56:56;98985.16;;;15.27;57.63
11648;BME280;5880;52.342;9.662;2023-04-01T06:59:28;98979.56;;;15.32;57.55
11648;BME280;5880;52.342;9.662;2023-04-01T07:02:04;98990.47;;;15.37;57.66
11648;BME280;5880;52.342;9.662;2023-04-01T07:04:37;98987.44;;;15.38;57.38
11648;BME280;5880;52.342;9.662;2023-04-01T07:07:33;98996.19;;;15.40;57.32
11648;BME280;5880;52.342;9.662;2023-04-01T07:10:06;98996.19;;;15.40;57.33
11648;BME280;5880;52.342;9.662;2023-04-01T07:12:52;99001.38;;;15.42;57.39
11648;BME280;5880;52.342;9.662;2023-04-01T07:15:23;98991.50;;;15.41;57.42
11648;BME280;5880;52.342;9.662;2023-04-01T07:17:58;98997.19;;;15.45;57.41
11648;BME280;5880;52.342;9.662;2023-04-01T07:20:32;99002.41;;;15.46;57.50
11648;BME280;5880;52.342;9.662;2023-04-01T07:23:06;99007.09;;;15.46;57.69
11648;BME280;5880;52.342;9.662;2023-04-01T07:25:42;99007.69;;;15.43;57.60
11648;BME280;5880;52.342;9.662;2023-04-01T07:28:15;99009.88;;;15.46;57.50
11648;BME280;5880;52.342;9.662;2023-04-01T07:36:45;99014.06;;;15.57;57.80
11648;BME280;5880;52.342;9.662;2023-04-01T07:43:02;99026.81;;;15.67;58.04
11648;BME280;5880;52.342;9.662;2023-04-01T07:48:55;99038.69;;;15.81;58.23
11648;BME280;5880;52.342;9.662;2023-04-01T07:51:43;99039.59;;;15.90;58.52
11648;BME280;5880;52.342;9.662;2023-04-01T07:57:01;99046.13;;;16.22;59.23
11648;BME280;5880;52.342;9.662;2023-04-01T08:02:24;99052.75;;;16.71;59.50
11648;BME280;5880;52.342;9.662;2023-04-01T08:05:19;99053.19;;;17.01;59.52
11648;BME280;5880;52.342;9.662;2023-04-01T08:08:19;99048.34;;;17.29;59.59
11648;BME280;5880;52.342;9.662;2023-04-01T08:11:04;99045.59;;;17.51;59.29
11648;BME280;5880;52.342;9.662;2023-04-01T08:13:38;99054.13;;;17.72;59.20
11648;BME280;5880;52.342;9.662;2023-04-01T08:16:30;99043.38;;;17.93;58.68
11648;BME280;5880;52.342;9.662;2023-04-01T08:19:15;99061.78;;;18.07;58.26
11648;BME280;5880;52.342;9.662;2023-04-01T08:21:50;99063.75;;;18.15;57.70
11648;BME280;5880;52.342;9.662;2023-04-01T08:24:42;99068.34;;;18.20;57.18
11648;BME280;5880;52.342;9.662;2023-04-01T08:27:26;99063.91;;;18.19;56.81
11648;BME280;5880;52.342;9.662;2023-04-01T08:30:18;99062.63;;;18.16;56.69
11648;BME280;5880;52.342;9.662;2023-04-01T08:36:57;99066.81;;;18.05;56.29
11648;BME280;5880;52.342;9.662;2023-04-01T08:38:54;99068.41;;;17.97;56.06
11648;BME280;5880;52.342;9.662;2023-04-01T08:48:08;99070.53;;;17.69;55.85
11648;BME280;5880;52.342;9.662;2023-04-01T08:54:40;99081.66;;;17.55;55.86
11648;BME280;5880;52.342;9.662;2023-04-01T09:00:32;99087.97;;;17.47;56.06
11648;BME280;5880;52.342;9.662;2023-04-01T09:03:29;99081.94;;;17.45;55.94
11648;BME280;5880;52.342;9.662;2023-04-01T09:09:54;99082.22;;;17.43;56.06
11648;BME280;5880;52.342;9.662;2023-04-01T09:13:05;99085.50;;;17.45;56.13
11648;BME280;5880;52.342;9.662;2023-04-01T09:15:55;99081.78;;;17.50;55.95
11648;BME280;5880;52.342;9.662;2023-04-01T09:22:48;99099.53;;;17.58;56.14
11648;BME280;5880;52.342;9.662;2023-04-01T09:28:10;99098.94;;;17.61;55.80
11648;BME280;5880;52.342;9.662;2023-04-01T09:36:45;99107.31;;;17.56;55.52
11648;BME280;5880;52.342;9.662;2023-04-01T09:39:34;99117.91;;;17.54;55.43
11648;BME280;5880;52.342;9.662;2023-04-01T09:42:42;99117.69;;;17.50;55.29
11648;BME280;5880;52.342;9.662;2023-04-01T09:45:26;99126.91;;;17.45;55.26
11648;BME280;5880;52.342;9.662;2023-04-01T09:53:58;99130.88;;;17.30;55.15
11648;BME280;5880;52.342;9.662;2023-04-01T10:00:23;99136.13;;;17.18;55.34
11648;BME280;5880;52.342;9.662;2023-04-01T10:06:47;99145.03;;;17.15;55.24
11648;BME280;5880;52.342;9.662;2023-04-01T10:12:32;99152.50;;;17.15;55.41
11648;BME280;5880;52.342;9.662;2023-04-01T10:15:45;99144.53;;;17.13;55.46
11648;BME280;5880;52.342;9.662;2023-04-01T10:22:00;99161.47;;;17.20;55.52
11648;BME280;5880;52.342;9.662;2023-04-01T10:25:23;99158.41;;;17.22;55.69
11648;BME280;5880;52.342;9.662;2023-04-01T10:28:08;99162.50;;;17.24;55.79
11648;BME280;5880;52.342;9.662;2023-04-01T10:36:59;99161.63;;;17.38;55.72
11648;BME280;5880;52.342;9.662;2023-04-01T10:42:53;99155.13;;;17.56;56.05
11648;BME280;5880;52.342;9.662;2023-04-01T10:46:24;99163.50;;;17.73;56.28
11648;BME280;5880;52.342;9.662;2023-04-01T10:55:37;99171.53;;;18.06;55.67
11648;BME280;5880;52.342;9.662;2023-04-01T11:01:55;99164.91;;;18.16;55.44
11648;BME280;5880;52.342;9.662;2023-04-01T11:11:24;99174.72;;;18.22;55.15
11648;BME280;5880;52.342;9.662;2023-04-01T11:20:42;99188.53;;;18.22;55.01
11648;BME280;5880;52.342;9.662;2023-04-01T11:27:10;99191.59;;;18.21;54.94
11648;BME280;5880;52.342;9.662;2023-04-01T11:33:23;99196.97;;;18.17;54.60
11648;BME280;5880;52.342;9.662;2023-04-01T11:39:20;99194.81;;;18.14;54.38
11648;BME280;5880;52.342;9.662;2023-04-01T11:45:07;99200.50;;;18.09;54.19
11648;BME280;5880;52.342;9.662;2023-04-01T11:53:26;99203.94;;;18.14;54.31
11648;BME280;5880;52.342;9.662;2023-04-01T11:56:49;99216.94;;;18.14;54.12
11648;BME280;5880;52.342;9.662;2023-04-01T12:03:21;99225.38;;;18.09;54.18
11648;BME280;5880;52.342;9.662;2023-04-01T12:09:16;99222.03;;;18.21;54.25
11648;BME280;5880;52.342;9.662;2023-04-01T12:12:24;99233.28;;;18.24;54.02
11648;BME280;5880;52.342;9.662;2023-04-01T12:18:33;99240.88;;;18.19;54.09
11648;BME280;5880;52.342;9.662;2023-04-01T12:21:45;99242.19;;;18.21;54.32
11648;BME280;5880;52.342;9.662;2023-04-01T12:24:33;99251.78;;;18.24;54.23
11648;BME280;5880;52.342;9.662;2023-04-01T12:27:41;99246.75;;;18.26;53.95
11648;BME280;5880;52.342;9.662;2023-04-01T12:30:27;99248.41;;;18.27;53.90
11648;BME280;5880;52.342;9.662;2023-04-01T12:33:23;99243.38;;;18.29;53.97
11648;BME280;5880;52.342;9.662;2023-04-01T12:39:44;99254.13;;;18.30;54.04
11648;BME280;5880;52.342;9.662;2023-04-01T12:42:44;99255.13;;;18.34;54.05
11648;BME280;5880;52.342;9.662;2023-04-01T12:45:47;99255.75;;;18.31;53.82
11648;BME280;5880;52.342;9.662;2023-04-01T12:49:22;99259.84;;;18.34;53.68
11648;BME280;5880;52.342;9.662;2023-04-01T13:00:38;99275.13;;;18.09;53.51
11648;BME280;5880;52.342;9.662;2023-04-01T13:03:34;99285.81;;;18.02;53.40
11648;BME280;5880;52.342;9.662;2023-04-01T13:13:04;99295.81;;;17.75;53.83
11648;BME280;5880;52.342;9.662;2023-04-01T13:22:16;99302.88;;;17.67;53.98
11648;BME280;5880;52.342;9.662;2023-04-01T13:25:00;99298.50;;;17.66;53.97
11648;BME280;5880;52.342;9.662;2023-04-01T13:27:44;99314.06;;;17.62;53.48
11648;BME280;5880;52.342;9.662;2023-04-01T13:36:30;99318.44;;;17.27;53.80
11648;BME280;5880;52.342;9.662;2023-04-01T13:39:17;99312.50;;;17.20;53.91
11648;BME280;5880;52.342;9.662;2023-04-01T13:42:13;99323.66;;;17.15;54.20
11648;BME280;5880;52.342;9.662;2023-04-01T13:44:56;99327.44;;;17.05;54.27
11648;BME280;5880;52.342;9.662;2023-04-01T13:48:08;99330.59;;;16.98;54.06
11648;BME280;5880;52.342;9.662;2023-04-01T13:51:19;99334.69;;;16.87;54.30
11648;BME280;5880;52.342;9.662;2023-04-01T14:03:26;99344.16;;;16.67;55.06
11648;BME280;5880;52.342;9.662;2023-04-01T14:09:10;99356.66;;;16.59;55.04
11648;BME280;5880;52.342;9.662;2023-04-01T14:14:52;99364.91;;;16.45;55.22
11648;BME280;5880;52.342;9.662;2023-04-01T14:26:59;99392.47;;;15.94;55.03
11648;BME280;5880;52.342;9.662;2023-04-01T14:36:18;99409.59;;;15.48;55.42
11648;BME280;5880;52.342;9.662;2023-04-01T14:48:32;99435.66;;;15.02;56.29
11648;BME280;5880;52.342;9.662;2023-04-01T14:51:33;99429.97;;;14.93;56.42
11648;BME280;5880;52.342;9.662;2023-04-01T14:54:08;99437.53;;;14.83;56.76
11648;BME280;5880;52.342;9.662;2023-04-01T15:05:16;99456.06;;;14.67;56.56
11648;BME280;5880;52.342;9.662;2023-04-01T15:08:05;99459.41;;;14.64;56.85
11648;BME280;5880;52.342;9.662;2023-04-01T15:11:03;99477.03;;;14.57;56.94
11648;BME280;5880;52.342;9.662;2023-04-01T15:16:47;99494.38;;;14.53;56.93
11648;BME280;5880;52.342;9.662;2023-04-01T15:19:47;99480.97;;;14.41;56.91
11648;BME280;5880;52.342;9.662;2023-04-01T15:26:11;99502.50;;;14.29;56.92
11648;BME280;5880;52.342;9.662;2023-04-01T15:29:06;99512.41;;;14.25;57.40
11648;BME280;5880;52.342;9.662;2023-04-01T15:31:50;99522.13;;;14.12;57.55
11648;BME280;5880;52.342;9.662;2023-04-01T15:37:31;99528.22;;;13.93;57.69
11648;BME280;5880;52.342;9.662;2023-04-01T15:42:55;99538.44;;;13.83;57.89
11648;BME280;5880;52.342;9.662;2023-04-01T15:45:49;99549.16;;;13.79;57.68
11648;BME280;5880;52.342;9.662;2023-04-01T15:48:41;99557.97;;;13.71;57.70
11648;BME280;5880;52.342;9.662;2023-04-01T15:51:53;99561.56;;;13.61;57.94
11648;BME280;5880;52.342;9.662;2023-04-01T15:57:54;99559.16;;;13.39;58.41
11648;BME280;5880;52.342;9.662;2023-04-01T16:07:01;99592.84;;;13.24;58.27
11648;BME280;5880;52.342;9.662;2023-04-01T16:09:40;99601.09;;;13.14;58.55
11648;BME280;5880;52.342;9.662;2023-04-01T16:12:24;99599.44;;;13.13;58.46
11648;BME280;5880;52.342;9.662;2023-04-01T16:21:02;99613.41;;;12.91;58.64
11648;BME280;5880;52.342;9.662;2023-04-01T16:24:03;99621.34;;;12.87;58.28
11648;BME280;5880;52.342;9.662;2023-04-01T16:26:47;99625.75;;;12.83;58.52
11648;BME280;5880;52.342;9.662;2023-04-01T16:35:10;99635.06;;;12.72;58.57
11648;BME280;5880;52.342;9.662;2023-04-01T16:38:13;99651.19;;;12.63;59.17
11648;BME280;5880;52.342;9.662;2023-04-01T16:41:05;99658.28;;;12.59;58.95
11648;BME280;5880;52.342;9.662;2023-04-01T16:44:08;99665.94;;;12.52;59.57
11648;BME280;5880;52.342;9.662;2023-04-01T16:46:38;99657.13;;;12.40;59.23
11648;BME280;5880;52.342;9.662;2023-04-01T16:54:55;99690.50;;;12.27;59.55
11648;BME280;5880;52.342;9.662;2023-04-01T16:57:31;99689.91;;;12.19;59.68
11648;BME280;5880;52.342;9.662;2023-04-01T17:00:26;99694.28;;;12.15;59.74
11648;BME280;5880;52.342;9.662;2023-04-01T17:03:02;99708.78;;;12.11;60.17
11648;BME280;5880;52.342;9.662;2023-04-01T17:05:52;99713.94;;;12.07;59.92
11648;BME280;5880;52.342;9.662;2023-04-01T17:08:45;99726.78;;;12.01;59.94
11648;BME280;5880;52.342;9.662;2023-04-01T17:11:26;99715.25;;;11.94;60.07
11648;BME280;5880;52.342;9.662;2023-04-01T17:14:35;99731.63;;;11.89;59.97
11648;BME280;5880;52.342;9.662;2023-04-01T17:17:38;99734.28;;;11.84;59.87
11648;BME280;5880;52.342;9.662;2023-04-01T17:20:43;99738.66;;;11.80;59.57
11648;BME280;5880;52.342;9.662;2023-04-01T17:23:19;99747.69;;;11.80;59.82
11648;BME280;5880;52.342;9.662;2023-04-01T17:28:58;99764.59;;;11.72;59.93
11648;BME280;5880;52.342;9.662;2023-04-01T17:34:17;99771.66;;;11.68;60.11
11648;BME280;5880;52.342;9.662;2023-04-01T17:37:15;99778.75;;;11.64;60.22
11648;BME280;5880;52.342;9.662;2023-04-01T17:47:09;99812.97;;;11.39;60.41
11648;BME280;5880;52.342;9.662;2023-04-01T17:50:28;99803.91;;;11.34;60.23
11648;BME280;5880;52.342;9.662;2023-04-01T17:53:22;99811.28;;;11.33;60.38
11648;BME280;5880;52.342;9.662;2023-04-01T17:59:11;99828.47;;;11.29;60.71
11648;BME280;5880;52.342;9.662;2023-04-01T18:01:46;99835.59;;;11.30;60.59
11648;BME280;5880;52.342;9.662;2023-04-01T18:04:37;99845.72;;;11.29;60.04
11648;BME280;5880;52.342;9.662;2023-04-01T18:07:34;99851.75;;;11.31;59.97
11648;BME280;5880;52.342;9.662;2023-04-01T18:13:43;99867.19;;;11.20;60.05
11648;BME280;5880;52.342;9.662;2023-04-01T18:16:46;99867.66;;;11.12;60.40
11648;BME280;5880;52.342;9.662;2023-04-01T18:19:47;99881.81;;;11.09;60.39
11648;BME280;5880;52.342;9.662;2023-04-01T18:22:26;99888.31;;;11.03;60.43
11648;BME280;5880;52.342;9.662;2023-04-01T18:27:40;99900.31;;;11.02;60.42
11648;BME280;5880;52.342;9.662;2023-04-01T18:30:28;99901.00;;;10.92;60.29
11648;BME280;5880;52.342;9.662;2023-04-01T18:33:15;99930.59;;;10.95;60.32
11648;BME280;5880;52.342;9.662;2023-04-01T18:36:09;99933.25;;;10.90;60.48
11648;BME280;5880;52.342;9.662;2023-04-01T18:41:42;99933.94;;;10.81;60.34
11648;BME280;5880;52.342;9.662;2023-04-01T18:44:27;99943.47;;;10.78;60.42
11648;BME280;5880;52.342;9.662;2023-04-01T18:50:26;99964.91;;;10.69;60.63
11648;BME280;5880;52.342;9.662;2023-04-01T18:53:22;99969.25;;;10.65;60.70
11648;BME280;5880;52.342;9.662;2023-04-01T18:55:57;99967.72;;;10.57;60.85
11648;BME280;5880;52.342;9.662;2023-04-01T18:58:36;99975.69;;;10.59;60.79
11648;BME280;5880;52.342;9.662;2023-04-01T19:04:28;99987.13;;;10.56;60.75
11648;BME280;5880;52.342;9.662;2023-04-01T19:07:00;100000.66;;;10.51;61.10
11648;BME280;5880;52.342;9.662;2023-04-01T19:09:45;99999.84;;;10.50;60.78
11648;BME280;5880;52.342;9.662;2023-04-01T19:12:46;100008.63;;;10.52;61.00
11648;BME280;5880;52.342;9.662;2023-04-01T19:15:36;100012.44;;;10.51;60.77
11648;BME280;5880;52.342;9.662;2023-04-01T19:18:55;100030.31;;;10.42;60.86
11648;BME280;5880;52.342;9.662;2023-04-01T19:21:37;100024.66;;;10.32;60.72
11648;BME280;5880;52.342;9.662;2023-04-01T19:27:48;100047.13;;;10.22;60.89
11648;BME280;5880;52.342;9.662;2023-04-01T19:30:40;100051.16;;;10.20;60.75